Time;durP1;ratioP1;P1;durP2;ratioP2;P2;SDS_P1;SDS_P2;PMS_P1;PMS_P2;Temp;Humidity;BMP_temperature;BMP_pressure;BME280_temperature;BME280_humidity;BME280_pressure;Samples;Min_cycle;Max_cycle;Signal;HPM_P1;HPM_P2
2023/12/25 00:02:09;;;;;;;3.00;1.40;;;12.10;99.90;;;;;;5115990;28;20181;-60
2023/12/25 00:04:35;;;;;;;2.83;1.48;;;12.10;99.90;;;;;;5115961;28;20177;-60
2023/12/25 00:07:00;;;;;;;1.65;1.10;;;12.10;99.90;;;;;;5115789;28;20173;-60
2023/12/25 00:09:26;;;;;;;3.30;1.30;;;12.10;99.90;;;;;;5115798;28;20184;-60
2023/12/25 00:11:51;;;;;;;4.57;1.60;;;12.20;99.90;;;;;;5115781;28;20177;-60
2023/12/25 00:14:17;;;;;;;3.75;1.30;;;12.30;99.90;;;;;;5115700;28;20626;-60
2023/12/25 00:16:43;;;;;;;4.38;1.45;;;12.20;99.90;;;;;;5115802;28;20180;-60
2023/12/25 00:19:08;;;;;;;1.50;0.95;;;12.30;99.90;;;;;;5115759;28;20201;-60
2023/12/25 00:21:35;;;;;;;2.22;0.90;;;12.20;99.90;;;;;;5114721;28;20303;-61
2023/12/25 00:24:01;;;;;;;3.20;0.90;;;12.20;99.90;;;;;;5115596;28;20161;-60
2023/12/25 00:26:26;;;;;;;0.98;0.85;;;12.20;99.90;;;;;;5115538;28;20256;-60
2023/12/25 00:28:52;;;;;;;2.45;1.02;;;12.10;99.90;;;;;;5115477;28;20196;-60
2023/12/25 00:31:18;;;;;;;1.25;0.70;;;12.10;99.90;;;;;;5115718;28;20284;-60
2023/12/25 00:33:43;;;;;;;1.45;0.80;;;12.10;99.90;;;;;;5115504;28;20504;-60
2023/12/25 00:36:11;;;;;;;2.15;0.85;;;12.10;99.90;;;;;;5115244;28;20176;-60
2023/12/25 00:38:36;;;;;;;2.42;0.75;;;12.10;99.90;;;;;;5115344;28;20526;-60
2023/12/25 00:41:02;;;;;;;1.05;0.73;;;12.10;99.90;;;;;;5115076;28;20291;-60
2023/12/25 00:43:28;;;;;;;1.90;0.73;;;12.10;99.90;;;;;;5114883;28;20174;-60
2023/12/25 00:45:53;;;;;;;1.20;0.75;;;12.30;99.90;;;;;;5115197;28;20184;-60
2023/12/25 00:48:19;;;;;;;1.25;0.70;;;12.20;99.90;;;;;;5115007;28;20192;-61
2023/12/25 00:50:44;;;;;;;2.15;1.05;;;12.20;99.90;;;;;;5115047;28;20173;-60
2023/12/25 00:53:10;;;;;;;1.15;0.90;;;12.10;99.90;;;;;;5114737;28;20173;-60
2023/12/25 00:55:36;;;;;;;1.55;0.80;;;12.20;99.90;;;;;;5114645;28;20185;-60
2023/12/25 00:58:01;;;;;;;1.73;0.90;;;12.20;99.90;;;;;;5114888;28;20175;-61
2023/12/25 01:00:27;;;;;;;0.98;0.75;;;12.20;99.90;;;;;;5115017;28;20240;-60
2023/12/25 01:02:53;;;;;;;1.98;0.90;;;12.20;99.90;;;;;;5114753;28;20187;-60
2023/12/25 01:05:18;;;;;;;2.83;1.20;;;12.20;99.90;;;;;;5114793;28;20184;-59
2023/12/25 01:07:44;;;;;;;3.70;1.25;;;12.20;99.90;;;;;;5115000;28;20177;-60
2023/12/25 01:10:10;;;;;;;1.08;0.93;;;12.20;99.90;;;;;;5114676;28;20219;-61
2023/12/25 01:12:35;;;;;;;2.15;0.93;;;12.30;99.90;;;;;;5114617;28;20165;-60
2023/12/25 01:15:01;;;;;;;2.17;0.80;;;12.30;99.90;;;;;;5114607;28;20208;-60
2023/12/25 01:17:27;;;;;;;1.75;0.90;;;12.30;99.90;;;;;;5114530;28;20223;-60
2023/12/25 01:19:52;;;;;;;2.13;1.00;;;12.30;99.90;;;;;;5114411;28;20213;-60
2023/12/25 01:22:18;;;;;;;2.75;0.80;;;12.40;99.90;;;;;;5114686;28;20221;-60
2023/12/25 01:24:44;;;;;;;1.75;0.90;;;12.40;99.90;;;;;;5114123;28;20264;-60
2023/12/25 01:27:10;;;;;;;2.38;0.88;;;12.40;99.90;;;;;;5114490;28;20295;-60
2023/12/25 01:29:36;;;;;;;2.38;1.10;;;12.50;99.90;;;;;;5114045;28;20227;-60
2023/12/25 01:32:02;;;;;;;2.13;1.00;;;12.40;99.90;;;;;;5114083;28;20169;-60
2023/12/25 01:34:27;;;;;;;2.85;1.00;;;12.30;99.90;;;;;;5113742;28;20265;-60
2023/12/25 01:36:53;;;;;;;1.92;0.88;;;12.40;99.90;;;;;;5114224;28;20181;-60
2023/12/25 01:39:19;;;;;;;2.58;0.93;;;12.30;99.90;;;;;;5114150;28;20185;-60
2023/12/25 01:41:44;;;;;;;1.67;0.88;;;12.30;99.90;;;;;;5114102;28;20204;-60
2023/12/25 01:44:12;;;;;;;3.63;0.90;;;12.30;99.90;;;;;;5113791;28;20184;-60
2023/12/25 01:46:38;;;;;;;1.33;1.00;;;12.30;99.90;;;;;;5114171;28;20236;-60
2023/12/25 01:49:05;;;;;;;2.45;1.00;;;12.30;99.90;;;;;;5113812;28;20260;-60
2023/12/25 01:51:32;;;;;;;1.60;0.98;;;12.30;99.90;;;;;;5114106;28;20588;-60
2023/12/25 01:53:58;;;;;;;2.55;1.00;;;12.30;99.90;;;;;;5114149;28;20197;-60
2023/12/25 01:56:24;;;;;;;2.05;0.90;;;12.30;99.90;;;;;;5114029;28;20169;-59
2023/12/25 01:58:49;;;;;;;0.93;0.60;;;12.50;99.90;;;;;;5113951;28;20181;-60
2023/12/25 02:01:15;;;;;;;2.72;1.02;;;12.40;99.90;;;;;;5113872;28;20204;-60
2023/12/25 02:03:41;;;;;;;1.95;0.80;;;12.30;99.90;;;;;;5114005;28;20208;-60
2023/12/25 02:06:07;;;;;;;3.22;0.90;;;12.30;99.90;;;;;;5113926;28;20166;-60
2023/12/25 02:08:33;;;;;;;1.77;0.80;;;12.30;99.90;;;;;;5114255;28;20177;-60
2023/12/25 02:11:06;;;;;;;1.50;0.82;;;12.40;99.90;;;;;;5113851;28;20201;-60
2023/12/25 02:13:31;;;;;;;0.73;0.57;;;12.40;99.90;;;;;;5113901;28;20196;-60
2023/12/25 02:15:58;;;;;;;1.50;0.77;;;12.30;99.90;;;;;;5112826;28;20212;-60
2023/12/25 02:18:24;;;;;;;1.73;0.95;;;12.40;99.90;;;;;;5113852;28;20173;-60
2023/12/25 02:20:50;;;;;;;1.27;0.75;;;12.30;99.90;;;;;;5113652;28;20280;-59
2023/12/25 02:23:18;;;;;;;3.72;0.80;;;12.30;99.90;;;;;;5113999;28;20225;-60
2023/12/25 02:26:01;;;;;;;0.90;0.80;;;12.30;99.90;;;;;;5113735;28;20298;-60
2023/12/25 02:28:27;;;;;;;2.65;1.00;;;12.30;99.90;;;;;;5113789;28;20158;-60
2023/12/25 02:30:53;;;;;;;1.25;0.70;;;12.30;99.90;;;;;;5113685;28;20174;-60
2023/12/25 02:33:19;;;;;;;1.52;0.60;;;12.30;99.90;;;;;;5113559;28;20755;-60
2023/12/25 02:35:44;;;;;;;1.42;0.60;;;12.30;99.90;;;;;;5113615;28;20173;-59
2023/12/25 02:38:10;;;;;;;1.80;0.75;;;12.30;99.90;;;;;;5113709;28;20209;-59
2023/12/25 02:40:39;;;;;;;2.28;0.90;;;12.20;99.90;;;;;;5113531;28;20209;-59
2023/12/25 02:43:07;;;;;;;0.65;0.50;;;12.30;99.90;;;;;;5113246;28;20519;-59
2023/12/25 02:45:33;;;;;;;2.45;0.77;;;12.30;99.90;;;;;;5116842;28;20183;-59
2023/12/25 02:47:58;;;;;;;1.88;0.70;;;12.30;99.90;;;;;;5117441;28;20169;-59
2023/12/25 02:50:24;;;;;;;0.85;0.60;;;12.40;99.90;;;;;;5117371;28;20177;-59
2023/12/25 02:52:50;;;;;;;1.58;0.70;;;12.40;99.90;;;;;;5117290;28;20174;-59
2023/12/25 02:55:15;;;;;;;3.58;0.80;;;12.40;99.90;;;;;;5117028;28;20184;-59
2023/12/25 02:57:41;;;;;;;1.35;0.68;;;12.40;99.90;;;;;;5117003;28;20173;-59
2023/12/25 03:00:07;;;;;;;1.80;0.50;;;12.40;99.90;;;;;;5116830;28;20205;-59
2023/12/25 03:02:33;;;;;;;1.05;0.60;;;12.40;99.90;;;;;;5117164;28;20178;-59
2023/12/25 03:04:58;;;;;;;1.73;0.80;;;12.40;99.90;;;;;;5117181;28;20612;-60
2023/12/25 03:07:24;;;;;;;1.92;0.88;;;12.30;99.90;;;;;;5117087;28;20503;-59
2023/12/25 03:09:50;;;;;;;3.13;1.00;;;12.20;99.90;;;;;;5116981;28;20508;-60
2023/12/25 03:12:15;;;;;;;1.00;0.90;;;12.20;99.90;;;;;;5117140;28;20252;-59
2023/12/25 03:14:41;;;;;;;1.80;1.00;;;12.20;99.90;;;;;;5116635;28;20228;-59
2023/12/25 03:17:07;;;;;;;2.15;0.90;;;12.20;99.90;;;;;;5117180;28;20174;-60
2023/12/25 03:19:32;;;;;;;1.98;1.02;;;12.20;99.90;;;;;;5116807;28;20211;-59
2023/12/25 03:21:58;;;;;;;1.30;0.80;;;12.20;99.90;;;;;;5116407;28;20240;-59
2023/12/25 03:24:23;;;;;;;1.85;0.80;;;12.10;99.90;;;;;;5115454;28;20173;-59
2023/12/25 03:26:50;;;;;;;1.38;0.80;;;12.30;99.90;;;;;;5116708;28;20169;-59
2023/12/25 03:29:15;;;;;;;2.38;0.70;;;12.30;99.90;;;;;;5116660;28;20180;-59
2023/12/25 03:31:41;;;;;;;1.65;0.90;;;12.20;99.90;;;;;;5116385;28;20173;-59
2023/12/25 03:34:07;;;;;;;1.30;0.90;;;12.30;99.90;;;;;;5116313;28;20188;-60
2023/12/25 03:36:32;;;;;;;1.92;0.70;;;12.20;99.90;;;;;;5116674;28;20170;-60
2023/12/25 03:38:58;;;;;;;0.88;0.70;;;12.20;99.90;;;;;;5116470;28;20176;-60
2023/12/25 03:41:23;;;;;;;0.73;0.70;;;12.10;99.90;;;;;;5116350;28;20211;-59
2023/12/25 03:43:49;;;;;;;1.75;0.88;;;12.10;99.90;;;;;;5116325;28;20185;-60
2023/12/25 03:46:15;;;;;;;3.00;0.65;;;12.10;99.90;;;;;;5116324;28;20173;-60
2023/12/25 03:48:41;;;;;;;2.00;0.73;;;12.20;99.90;;;;;;5116270;28;20181;-60
2023/12/25 03:51:07;;;;;;;1.80;0.90;;;12.10;99.90;;;;;;5116255;28;20225;-59
2023/12/25 03:53:33;;;;;;;0.63;0.63;;;12.10;99.90;;;;;;5116152;28;20181;-59
2023/12/25 03:56:02;;;;;;;0.73;0.60;;;12.20;99.90;;;;;;5114728;28;20184;-59
2023/12/25 03:58:28;;;;;;;1.50;0.70;;;12.10;99.90;;;;;;5116019;28;20264;-59
2023/12/25 04:00:54;;;;;;;1.92;0.65;;;12.20;99.90;;;;;;5115978;28;20334;-59
2023/12/25 04:03:19;;;;;;;1.33;0.63;;;12.30;99.90;;;;;;5116030;28;20638;-59
2023/12/25 04:05:45;;;;;;;0.63;0.63;;;12.30;99.90;;;;;;5115640;28;20169;-59
2023/12/25 04:08:11;;;;;;;1.45;0.80;;;12.30;99.90;;;;;;5115826;28;20177;-59
2023/12/25 04:10:37;;;;;;;1.17;0.70;;;12.30;99.90;;;;;;5115846;28;20173;-60
2023/12/25 04:13:03;;;;;;;1.42;0.60;;;12.20;99.90;;;;;;5115772;28;20165;-59
2023/12/25 04:15:28;;;;;;;0.40;0.40;;;12.20;99.90;;;;;;5115933;28;20177;-59
2023/12/25 04:17:54;;;;;;;1.42;0.70;;;12.10;99.90;;;;;;5115732;28;20637;-60
2023/12/25 04:20:19;;;;;;;2.88;0.80;;;12.20;99.90;;;;;;5115492;28;20717;-59
2023/12/25 04:22:48;;;;;;;0.93;0.50;;;12.20;99.90;;;;;;5115254;28;20221;-59
2023/12/25 04:25:13;;;;;;;0.75;0.63;;;12.20;99.90;;;;;;5115538;28;20222;-59
2023/12/25 04:27:39;;;;;;;1.80;0.70;;;12.30;99.90;;;;;;5115523;28;20173;-59
2023/12/25 04:30:05;;;;;;;2.45;0.63;;;12.30;99.90;;;;;;5115149;28;20169;-59
2023/12/25 04:32:31;;;;;;;0.63;0.50;;;12.20;99.90;;;;;;5115472;28;20201;-60
2023/12/25 04:34:57;;;;;;;1.83;0.50;;;12.20;99.90;;;;;;5115424;28;20574;-60
2023/12/25 04:37:22;;;;;;;1.70;0.50;;;12.20;99.90;;;;;;5115254;28;20526;-59
2023/12/25 04:39:48;;;;;;;0.60;0.60;;;12.20;99.90;;;;;;5115155;28;20225;-59
2023/12/25 04:42:13;;;;;;;0.75;0.50;;;12.10;99.90;;;;;;5115231;28;20177;-59
2023/12/25 04:44:40;;;;;;;2.03;0.60;;;12.00;99.90;;;;;;5115170;28;20231;-59
2023/12/25 04:47:06;;;;;;;2.08;0.55;;;12.10;99.90;;;;;;5115119;28;20208;-59
2023/12/25 04:49:32;;;;;;;0.60;0.60;;;12.20;99.90;;;;;;5114978;28;20658;-59
2023/12/25 04:51:58;;;;;;;0.95;0.50;;;12.20;99.90;;;;;;5114757;28;20226;-60
2023/12/25 04:54:23;;;;;;;1.20;0.60;;;12.10;99.90;;;;;;5114953;28;20211;-59
2023/12/25 04:56:51;;;;;;;1.98;0.60;;;12.20;99.90;;;;;;5115003;28;20176;-59
2023/12/25 04:59:20;;;;;;;0.70;0.60;;;12.10;99.90;;;;;;5114811;28;20184;-59
2023/12/25 05:01:48;;;;;;;0.60;0.45;;;12.10;99.90;;;;;;5114728;28;20209;-59
2023/12/25 05:04:14;;;;;;;2.17;0.70;;;12.20;99.90;;;;;;5114799;28;20256;-59
2023/12/25 05:06:40;;;;;;;1.30;0.50;;;12.20;99.90;;;;;;5114821;28;20595;-60
2023/12/25 05:09:06;;;;;;;1.52;0.60;;;12.20;99.90;;;;;;5114723;28;20638;-59
2023/12/25 05:11:32;;;;;;;1.15;0.68;;;12.20;99.90;;;;;;5114653;28;20177;-59
2023/12/25 05:13:57;;;;;;;2.03;0.80;;;12.20;99.90;;;;;;5114642;28;20170;-59
2023/12/25 05:16:23;;;;;;;0.90;0.60;;;12.20;99.90;;;;;;5114573;28;20169;-59
2023/12/25 05:18:49;;;;;;;0.90;0.70;;;12.20;99.90;;;;;;5114518;28;20183;-60
2023/12/25 05:21:14;;;;;;;1.75;0.60;;;12.20;99.90;;;;;;5114166;28;20648;-59
2023/12/25 05:23:40;;;;;;;2.20;0.50;;;12.20;99.90;;;;;;5114540;28;20229;-59
2023/12/25 05:26:05;;;;;;;0.95;0.50;;;12.20;99.90;;;;;;5114136;28;20173;-59
2023/12/25 05:28:31;;;;;;;0.98;0.50;;;12.20;99.90;;;;;;5114324;28;20199;-60
2023/12/25 05:30:57;;;;;;;0.80;0.55;;;12.20;99.90;;;;;;5114379;28;20276;-59
2023/12/25 05:33:23;;;;;;;1.20;0.40;;;12.10;99.90;;;;;;5114272;28;20184;-59
2023/12/25 05:35:48;;;;;;;1.05;0.43;;;12.10;99.90;;;;;;5114357;28;20526;-59
2023/12/25 05:38:14;;;;;;;0.30;0.30;;;12.20;99.90;;;;;;5114258;28;20225;-59
2023/12/25 05:40:39;;;;;;;1.25;0.38;;;12.10;99.90;;;;;;5113766;28;20205;-59
2023/12/25 05:43:10;;;;;;;0.40;0.40;;;12.10;99.90;;;;;;5114226;28;20174;-60
2023/12/25 05:45:37;;;;;;;0.70;0.30;;;12.10;99.90;;;;;;5114360;28;20169;-59
2023/12/25 05:48:02;;;;;;;0.70;0.50;;;12.20;99.90;;;;;;5112888;28;20525;-59
2023/12/25 05:50:28;;;;;;;0.55;0.52;;;12.20;99.90;;;;;;5114050;28;20181;-59
2023/12/25 05:52:54;;;;;;;0.50;0.50;;;12.20;99.90;;;;;;5114050;28;20181;-59
2023/12/25 05:55:20;;;;;;;0.88;0.50;;;12.30;99.90;;;;;;5113994;28;20178;-60
2023/12/25 05:57:45;;;;;;;0.73;0.50;;;12.20;99.90;;;;;;5113936;28;20185;-59
2023/12/25 06:00:12;;;;;;;0.43;0.40;;;12.20;99.90;;;;;;5113878;28;20212;-60
2023/12/25 06:02:38;;;;;;;1.13;0.43;;;12.10;99.90;;;;;;5114146;28;20176;-59
2023/12/25 06:05:03;;;;;;;1.25;0.50;;;12.20;99.90;;;;;;5113976;28;20251;-59
2023/12/25 06:07:29;;;;;;;1.58;0.70;;;12.10;99.90;;;;;;5113903;28;20689;-59
2023/12/25 06:09:55;;;;;;;0.50;0.40;;;12.20;99.90;;;;;;5113926;28;20173;-59
2023/12/25 06:12:20;;;;;;;0.47;0.45;;;12.20;99.90;;;;;;5113880;28;20645;-59
2023/12/25 06:14:46;;;;;;;1.02;0.60;;;12.20;99.90;;;;;;5113811;28;20585;-59
2023/12/25 06:17:11;;;;;;;1.13;0.60;;;12.20;99.90;;;;;;5113834;28;20183;-59
2023/12/25 06:19:37;;;;;;;0.75;0.50;;;12.10;99.90;;;;;;5115897;28;20581;-60
2023/12/25 06:22:03;;;;;;;1.05;0.60;;;12.20;99.90;;;;;;5117651;28;20228;-59
2023/12/25 06:24:29;;;;;;;1.05;0.60;;;12.30;99.90;;;;;;5117908;28;20222;-59
2023/12/25 06:26:54;;;;;;;0.73;0.70;;;12.30;99.90;;;;;;5117888;28;20257;-59
2023/12/25 06:29:20;;;;;;;0.73;0.50;;;12.20;99.90;;;;;;5117986;28;20238;-59
2023/12/25 06:31:49;;;;;;;1.33;0.75;;;12.30;99.90;;;;;;5117790;28;20173;-59
2023/12/25 06:34:14;;;;;;;1.02;0.73;;;12.40;99.90;;;;;;5117462;28;20668;-59
2023/12/25 06:36:40;;;;;;;1.27;0.60;;;12.40;99.90;;;;;;5117706;28;20169;-59
2023/12/25 06:39:06;;;;;;;1.30;0.80;;;12.40;99.90;;;;;;5117577;28;20177;-59
2023/12/25 06:41:32;;;;;;;0.63;0.60;;;12.30;99.90;;;;;;5117560;28;20233;-60
2023/12/25 06:43:57;;;;;;;0.75;0.52;;;12.30;99.90;;;;;;5117588;28;20219;-59
2023/12/25 06:46:23;;;;;;;1.55;0.68;;;12.30;99.90;;;;;;5117518;28;20181;-59
2023/12/25 06:48:49;;;;;;;2.88;0.70;;;12.30;99.90;;;;;;5117411;28;20230;-59
2023/12/25 06:51:14;;;;;;;0.85;0.63;;;12.30;99.90;;;;;;5117106;28;20719;-59
2023/12/25 06:53:41;;;;;;;1.00;0.70;;;12.20;99.90;;;;;;5117288;28;20207;-59
2023/12/25 06:56:08;;;;;;;1.80;0.70;;;12.30;99.90;;;;;;5117077;28;20626;-59
2023/12/25 06:58:34;;;;;;;1.38;0.75;;;12.30;99.90;;;;;;5117189;28;20177;-60
2023/12/25 07:01:02;;;;;;;0.75;0.65;;;12.30;99.90;;;;;;5117542;28;20203;-59
2023/12/25 07:03:28;;;;;;;5.03;0.90;;;12.40;99.90;;;;;;5117202;28;20184;-59
2023/12/25 07:05:54;;;;;;;1.05;0.82;;;12.30;99.90;;;;;;5117175;28;20264;-59
2023/12/25 07:08:19;;;;;;;0.77;0.60;;;12.40;99.90;;;;;;5117277;28;20177;-60
2023/12/25 07:10:46;;;;;;;1.65;0.63;;;12.40;99.90;;;;;;5116720;28;20188;-60
2023/12/25 07:13:13;;;;;;;0.93;0.50;;;12.30;99.90;;;;;;5116942;28;20178;-59
2023/12/25 07:15:38;;;;;;;0.52;0.52;;;12.20;99.90;;;;;;5116944;28;20630;-60
2023/12/25 07:18:06;;;;;;;0.40;0.40;;;12.20;99.90;;;;;;5116895;28;20200;-59
2023/12/25 07:20:31;;;;;;;0.82;0.60;;;12.20;99.90;;;;;;5116788;28;20200;-59
2023/12/25 07:22:57;;;;;;;0.85;0.70;;;12.20;99.90;;;;;;5116361;28;20224;-60
2023/12/25 07:25:23;;;;;;;0.50;0.50;;;12.20;99.90;;;;;;5116801;28;20522;-59
2023/12/25 07:27:48;;;;;;;0.70;0.70;;;12.30;99.90;;;;;;5116782;28;20177;-59
2023/12/25 07:30:14;;;;;;;0.68;0.68;;;12.30;99.90;;;;;;5116542;28;20177;-59
2023/12/25 07:32:41;;;;;;;2.08;0.70;;;12.30;99.90;;;;;;5116646;28;20180;-59
2023/12/25 07:35:07;;;;;;;0.45;0.45;;;12.20;99.90;;;;;;5116557;28;20177;-60
2023/12/25 07:37:33;;;;;;;0.60;0.60;;;12.20;99.90;;;;;;5115269;28;20623;-60
2023/12/25 07:39:59;;;;;;;0.70;0.70;;;12.30;99.90;;;;;;5116385;28;20192;-60
2023/12/25 07:42:26;;;;;;;0.90;0.80;;;12.30;99.90;;;;;;5116392;28;20173;-60
2023/12/25 07:44:52;;;;;;;0.80;0.80;;;12.30;99.90;;;;;;5116347;28;20188;-60
2023/12/25 07:47:17;;;;;;;0.90;0.50;;;12.30;99.90;;;;;;5116349;28;20552;-59
2023/12/25 07:49:43;;;;;;;0.70;0.60;;;12.20;99.90;;;;;;5116309;28;20173;-59
2023/12/25 07:52:09;;;;;;;0.50;0.50;;;12.20;99.90;;;;;;5116432;28;20221;-59
2023/12/25 07:54:34;;;;;;;1.85;0.50;;;12.20;99.90;;;;;;5116141;28;20183;-60
2023/12/25 07:57:00;;;;;;;0.80;0.60;;;12.20;99.90;;;;;;5116185;28;20174;-59
2023/12/25 07:59:26;;;;;;;0.60;0.60;;;12.20;99.90;;;;;;5115803;28;20173;-60
2023/12/25 08:01:52;;;;;;;1.50;0.60;;;12.30;99.90;;;;;;5115561;28;20185;-60
2023/12/25 08:04:17;;;;;;;0.60;0.60;;;12.20;99.90;;;;;;5115786;28;20203;-60
2023/12/25 08:06:43;;;;;;;0.52;0.52;;;12.20;99.90;;;;;;5114692;28;20177;-59
2023/12/25 08:09:09;;;;;;;1.40;1.08;;;12.40;99.90;;;;;;5113845;28;20184;-59
2023/12/25 08:11:36;;;;;;;1.40;1.30;;;12.40;99.90;;;;;;5115586;28;20264;-60
2023/12/25 08:14:02;;;;;;;0.77;0.77;;;12.40;99.90;;;;;;5115416;28;20180;-60
2023/12/25 08:16:27;;;;;;;1.08;1.00;;;12.40;99.90;;;;;;5115726;28;20165;-60
2023/12/25 08:18:53;;;;;;;0.88;0.88;;;12.30;99.90;;;;;;5115545;28;20169;-59
2023/12/25 08:21:20;;;;;;;0.85;0.52;;;12.40;99.90;;;;;;5115340;28;20242;-59
2023/12/25 08:23:46;;;;;;;0.50;0.50;;;12.30;99.90;;;;;;5115426;28;20550;-60
2023/12/25 08:26:11;;;;;;;0.65;0.40;;;12.40;99.90;;;;;;5115373;28;20177;-59
2023/12/25 08:28:40;;;;;;;0.40;0.40;;;12.30;99.90;;;;;;5111765;27;20182;-59
2023/12/25 08:31:06;;;;;;;0.85;0.80;;;12.30;99.90;;;;;;5094838;28;20534;-60
2023/12/25 08:33:34;;;;;;;0.70;0.70;;;12.40;99.90;;;;;;5100514;28;20173;-60
2023/12/25 08:36:00;;;;;;;1.55;0.60;;;12.40;99.90;;;;;;5114840;28;20680;-60
2023/12/25 08:38:26;;;;;;;0.60;0.60;;;12.40;99.90;;;;;;5114872;28;20177;-60
2023/12/25 08:40:51;;;;;;;0.50;0.50;;;12.40;99.90;;;;;;5113570;28;20220;-59
2023/12/25 08:43:17;;;;;;;0.70;0.60;;;12.30;99.90;;;;;;5114460;28;20534;-59
2023/12/25 08:45:42;;;;;;;0.70;0.70;;;12.40;99.90;;;;;;5114427;28;20181;-59
2023/12/25 08:48:08;;;;;;;0.60;0.60;;;12.30;99.90;;;;;;5114728;28;20176;-59
2023/12/25 08:50:34;;;;;;;0.82;0.80;;;12.40;99.90;;;;;;5114692;28;20181;-59
2023/12/25 08:53:00;;;;;;;2.08;1.17;;;12.40;99.90;;;;;;5114751;28;20173;-59
2023/12/25 08:55:25;;;;;;;1.20;1.10;;;12.60;99.90;;;;;;5114728;28;20256;-60
2023/12/25 08:57:51;;;;;;;1.23;1.10;;;12.50;99.90;;;;;;5114194;28;20212;-60
2023/12/25 09:00:17;;;;;;;0.80;0.80;;;12.50;99.90;;;;;;5114548;28;20753;-60
2023/12/25 09:02:42;;;;;;;0.77;0.77;;;12.50;99.90;;;;;;5114564;28;20183;-58
2023/12/25 09:05:08;;;;;;;1.15;1.05;;;12.50;99.90;;;;;;5114587;28;20178;-59
2023/12/25 09:07:34;;;;;;;0.60;0.60;;;12.50;99.90;;;;;;5112957;28;20699;-59
2023/12/25 09:10:01;;;;;;;0.60;0.60;;;12.40;99.90;;;;;;5113144;28;20180;-59
2023/12/25 09:12:26;;;;;;;0.50;0.50;;;12.40;99.90;;;;;;5114509;28;20177;-59
2023/12/25 09:14:52;;;;;;;0.60;0.60;;;12.50;99.90;;;;;;5114219;28;20206;-59
2023/12/25 09:17:18;;;;;;;0.60;0.60;;;12.50;99.90;;;;;;5114822;28;20177;-59
2023/12/25 09:19:44;;;;;;;0.68;0.68;;;12.50;99.90;;;;;;5114557;28;20715;-59
2023/12/25 09:22:09;;;;;;;0.60;0.60;;;12.60;99.90;;;;;;5114207;28;20244;-59
2023/12/25 09:24:35;;;;;;;0.60;0.60;;;12.50;99.90;;;;;;5114489;28;20173;-59
2023/12/25 09:27:00;;;;;;;0.70;0.70;;;12.50;99.90;;;;;;5114419;28;20177;-60
2023/12/25 09:29:27;;;;;;;0.65;0.65;;;12.50;99.90;;;;;;5113245;28;20176;-60
2023/12/25 09:31:53;;;;;;;0.80;0.77;;;12.50;99.90;;;;;;5114070;28;20261;-60
2023/12/25 09:34:18;;;;;;;0.68;0.60;;;12.50;99.90;;;;;;5113977;28;20256;-61
2023/12/25 09:36:44;;;;;;;0.88;0.80;;;12.60;99.90;;;;;;5114479;28;20215;-60
2023/12/25 09:39:10;;;;;;;1.05;0.68;;;12.60;99.90;;;;;;5114216;28;20713;-60
2023/12/25 09:41:36;;;;;;;1.10;0.70;;;12.60;99.90;;;;;;5114128;28;20245;-60
2023/12/25 09:44:02;;;;;;;0.73;0.65;;;12.50;99.90;;;;;;5114240;28;20204;-60
2023/12/25 09:46:31;;;;;;;0.52;0.52;;;12.40;99.90;;;;;;5113913;28;20196;-60
2023/12/25 09:48:58;;;;;;;0.60;0.60;;;12.50;99.90;;;;;;5114177;28;20168;-60
2023/12/25 09:51:25;;;;;;;0.68;0.65;;;12.60;99.90;;;;;;5114083;28;20185;-60
2023/12/25 09:53:51;;;;;;;0.60;0.60;;;12.60;99.90;;;;;;5113489;28;20264;-61
2023/12/25 09:56:18;;;;;;;0.57;0.57;;;12.60;99.90;;;;;;5113726;28;20661;-59
2023/12/25 09:58:44;;;;;;;0.60;0.60;;;12.60;99.90;;;;;;5114028;28;20173;-59
2023/12/25 10:01:14;;;;;;;1.23;0.88;;;12.80;99.90;;;;;;5113728;28;20201;-59
2023/12/25 10:03:43;;;;;;;1.85;0.90;;;12.80;99.90;;;;;;5113879;28;20169;-59
2023/12/25 10:06:09;;;;;;;0.60;0.60;;;12.90;99.90;;;;;;5113330;28;20161;-59
2023/12/25 10:08:36;;;;;;;0.73;0.70;;;12.80;99.90;;;;;;5113323;28;20268;-59
2023/12/25 10:11:04;;;;;;;0.70;0.68;;;12.80;99.90;;;;;;5113552;28;20185;-60
2023/12/25 10:13:30;;;;;;;1.67;0.80;;;12.80;99.90;;;;;;5113832;28;20173;-60
2023/12/25 10:15:55;;;;;;;0.90;0.90;;;12.80;99.90;;;;;;5113920;28;20580;-60
2023/12/25 10:18:22;;;;;;;0.80;0.80;;;12.80;99.90;;;;;;5113897;28;20169;-59
2023/12/25 10:21:03;;;;;;;0.70;0.70;;;12.80;99.90;;;;;;5113564;28;20212;-58
2023/12/25 10:23:34;;;;;;;0.80;0.80;;;12.90;99.90;;;;;;5114071;28;20225;-59
2023/12/25 10:26:02;;;;;;;1.20;1.10;;;12.90;99.90;;;;;;5113778;28;20180;-59
2023/12/25 10:28:30;;;;;;;0.80;0.80;;;12.90;99.90;;;;;;5113707;28;20234;-58
2023/12/25 10:31:09;;;;;;;0.98;0.80;;;12.90;99.90;;;;;;5113646;28;20174;-60
2023/12/25 10:33:37;;;;;;;0.88;0.88;;;12.90;99.90;;;;;;5113424;28;20576;-58
2023/12/25 10:36:07;;;;;;;0.80;0.80;;;12.90;99.90;;;;;;5113669;28;20199;-59
2023/12/25 10:38:36;;;;;;;0.82;0.73;;;13.00;99.90;;;;;;5113607;28;20170;-59
2023/12/25 10:41:21;;;;;;;1.40;1.00;;;13.10;99.90;;;;;;5113486;28;20198;-61
2023/12/25 10:43:52;;;;;;;1.25;0.90;;;13.10;99.90;;;;;;5113592;28;20626;-60
2023/12/25 10:46:26;;;;;;;0.93;0.80;;;13.00;99.90;;;;;;5113534;28;20177;-61
2023/12/25 10:48:53;;;;;;;1.25;0.90;;;13.00;99.90;;;;;;5113594;28;20173;-59
2023/12/25 10:51:29;;;;;;;1.35;0.70;;;13.00;99.90;;;;;;5113574;28;20177;-59
2023/12/25 10:53:59;;;;;;;2.80;0.88;;;13.10;99.90;;;;;;5113323;28;20610;-59
2023/12/25 10:56:26;;;;;;;0.90;0.80;;;13.10;99.90;;;;;;5113548;28;20180;-61
2023/12/25 10:58:52;;;;;;;2.55;0.85;;;13.20;99.90;;;;;;5113478;28;20166;-59
2023/12/25 11:01:30;;;;;;;0.80;0.80;;;13.20;99.90;;;;;;5113363;28;20207;-60
2023/12/25 11:03:56;;;;;;;1.08;0.80;;;13.20;99.90;;;;;;5113519;28;20153;-60
2023/12/25 11:06:22;;;;;;;1.13;1.00;;;13.10;99.90;;;;;;5116266;28;20177;-59
2023/12/25 11:08:48;;;;;;;1.27;0.90;;;12.90;99.90;;;;;;5117038;28;20184;-59
2023/12/25 11:11:15;;;;;;;1.35;0.90;;;13.10;99.90;;;;;;5117128;28;20607;-59
2023/12/25 11:13:41;;;;;;;2.30;1.02;;;13.10;99.90;;;;;;5116919;28;20314;-59
2023/12/25 11:16:09;;;;;;;1.08;0.93;;;13.10;99.90;;;;;;5116962;28;20200;-59
2023/12/25 11:18:37;;;;;;;1.65;1.20;;;13.10;99.90;;;;;;5116946;28;20165;-59
2023/12/25 11:21:04;;;;;;;3.17;1.20;;;13.20;99.90;;;;;;5116821;28;20209;-59
2023/12/25 11:23:32;;;;;;;1.70;1.00;;;13.20;99.90;;;;;;5117019;28;20236;-59
2023/12/25 11:25:59;;;;;;;1.40;1.17;;;13.10;99.90;;;;;;5117064;28;20180;-60
2023/12/25 11:28:26;;;;;;;1.30;1.20;;;13.10;99.90;;;;;;5116668;27;20635;-59
2023/12/25 11:30:52;;;;;;;1.90;1.40;;;13.10;99.90;;;;;;5116641;28;20687;-59
2023/12/25 11:33:21;;;;;;;2.25;1.45;;;13.10;99.90;;;;;;5116649;28;20246;-60
2023/12/25 11:35:47;;;;;;;1.30;1.20;;;13.00;99.90;;;;;;5116585;28;20169;-60
2023/12/25 11:38:27;;;;;;;1.60;1.50;;;13.10;99.90;;;;;;5116578;28;20169;-60
2023/12/25 11:40:52;;;;;;;1.58;1.40;;;13.00;99.90;;;;;;5116448;28;20232;-60
2023/12/25 11:43:19;;;;;;;2.17;1.35;;;12.90;99.90;;;;;;5116176;28;20204;-59
2023/12/25 11:45:46;;;;;;;2.83;1.20;;;13.00;99.90;;;;;;5116396;28;20173;-60
2023/12/25 11:48:12;;;;;;;2.38;1.30;;;12.90;99.90;;;;;;5116333;28;20173;-60
2023/12/25 11:50:41;;;;;;;3.25;1.30;;;12.90;99.90;;;;;;5116211;28;20272;-59
2023/12/25 11:53:07;;;;;;;1.08;0.98;;;13.00;99.90;;;;;;5116259;28;20618;-59
2023/12/25 11:55:32;;;;;;;1.80;1.25;;;13.00;99.90;;;;;;5115908;28;20226;-59
2023/12/25 11:57:58;;;;;;;1.73;1.30;;;12.90;99.90;;;;;;5116529;28;20174;-59
2023/12/25 12:00:26;;;;;;;1.80;1.20;;;12.90;99.90;;;;;;5116105;28;20546;-60
2023/12/25 12:02:52;;;;;;;1.95;1.23;;;12.90;99.90;;;;;;5114924;28;20177;-60
2023/12/25 12:05:19;;;;;;;1.40;1.00;;;12.90;99.90;;;;;;5115753;28;20530;-60
2023/12/25 12:07:45;;;;;;;2.92;1.40;;;12.80;99.90;;;;;;5114612;28;20260;-61
2023/12/25 12:10:12;;;;;;;3.17;1.50;;;12.90;99.90;;;;;;5115972;28;20669;-59
2023/12/25 12:12:38;;;;;;;1.58;1.30;;;12.90;99.90;;;;;;5115578;28;20605;-59
2023/12/25 12:15:06;;;;;;;3.22;1.83;;;12.90;99.90;;;;;;5115853;28;20169;-60
2023/12/25 12:17:32;;;;;;;2.33;1.27;;;12.90;99.90;;;;;;5114827;28;20189;-60
2023/12/25 12:19:59;;;;;;;3.92;1.60;;;13.00;99.90;;;;;;5115684;28;20173;-59
2023/12/25 12:22:26;;;;;;;1.50;1.40;;;13.00;99.90;;;;;;5115385;28;20221;-60
2023/12/25 12:24:52;;;;;;;2.55;1.55;;;12.90;99.90;;;;;;5115536;28;20178;-60
2023/12/25 12:27:21;;;;;;;2.72;1.70;;;12.90;99.90;;;;;;5115600;28;20170;-59
2023/12/25 12:29:50;;;;;;;1.92;1.67;;;12.90;99.90;;;;;;5115610;28;20557;-60
2023/12/25 12:32:16;;;;;;;2.63;1.58;;;12.90;99.90;;;;;;5115520;28;20173;-59
2023/12/25 12:34:43;;;;;;;1.75;1.42;;;13.00;99.90;;;;;;5114288;28;20173;-59
2023/12/25 12:37:09;;;;;;;2.22;1.40;;;13.00;99.90;;;;;;5115361;28;20187;-59
2023/12/25 12:39:36;;;;;;;2.20;1.70;;;12.90;99.90;;;;;;5115320;28;20179;-62
2023/12/25 12:42:09;;;;;;;3.47;1.70;;;13.00;99.90;;;;;;5115553;28;20205;-60
2023/12/25 12:44:35;;;;;;;2.80;1.58;;;13.10;99.90;;;;;;5115278;28;20215;-60